createdAt,value
2023-02-28T00:00:29.439Z,38.5
2023-02-28T00:08:02.042Z,38.5
2023-02-28T00:15:34.363Z,38.5
2023-02-28T00:23:06.689Z,38.5
2023-02-28T00:30:39.054Z,38.3
2023-02-28T00:38:11.399Z,38.4
2023-02-28T00:45:43.724Z,38.3
2023-02-28T00:53:16.091Z,38.3
2023-02-28T01:00:48.440Z,38.2
2023-02-28T01:08:20.760Z,38.2
2023-02-28T01:15:53.421Z,38.2
2023-02-28T01:23:25.775Z,38.1
2023-02-28T01:38:44.042Z,38.1
2023-02-28T01:46:16.418Z,38.1
2023-02-28T01:53:48.746Z,38.0
2023-02-28T02:01:21.112Z,38.0
2023-02-28T02:08:53.462Z,37.9
2023-02-28T02:16:26.011Z,37.8
2023-02-28T02:23:58.419Z,37.9
2023-02-28T02:31:31.132Z,38.0
2023-02-28T02:39:03.633Z,37.9
2023-02-28T02:46:37.052Z,37.8
2023-02-28T02:54:09.408Z,37.8
2023-02-28T02:56:31.675Z,37.8
2023-02-28T02:57:18.984Z,37.6
2023-02-28T02:58:06.283Z,37.5
2023-02-28T02:58:53.618Z,37.1
2023-02-28T02:59:40.942Z,37.3
2023-02-28T03:00:28.255Z,37.3
2023-02-28T03:01:15.611Z,37.3
2023-02-28T03:02:03.048Z,37.3
2023-02-28T03:09:35.425Z,37.3
2023-02-28T03:17:07.800Z,37.3
2023-02-28T03:24:40.125Z,37.3
2023-02-28T03:32:12.547Z,37.4
2023-02-28T03:39:45.013Z,37.4
2023-02-28T03:47:17.349Z,37.4
2023-02-28T03:54:49.686Z,37.5
2023-02-28T04:02:22.024Z,37.4
2023-02-28T04:09:54.368Z,37.5
2023-02-28T04:17:26.722Z,37.3
2023-02-28T04:24:59.057Z,37.3
2023-02-28T04:32:31.442Z,37.3
2023-02-28T04:40:03.792Z,37.3
2023-02-28T04:47:36.116Z,37.4
2023-02-28T04:55:08.437Z,37.4
2023-02-28T05:02:40.755Z,37.4
2023-02-28T05:10:13.069Z,37.2
2023-02-28T05:17:05.385Z,37.3
2023-02-28T05:17:52.705Z,37.3
2023-02-28T05:18:40.094Z,37.4
2023-02-28T05:19:27.420Z,37.4
2023-02-28T05:20:16.404Z,37.4
2023-02-28T05:21:03.810Z,37.4
2023-02-28T05:21:51.281Z,37.4
2023-02-28T05:22:38.656Z,37.4
2023-02-28T05:23:25.949Z,37.4
2023-02-28T05:24:13.407Z,37.3
2023-02-28T05:25:00.772Z,37.3
2023-02-28T05:25:48.069Z,37.3
2023-02-28T05:26:35.522Z,37.3
2023-02-28T05:27:22.834Z,37.3
2023-02-28T05:28:10.323Z,37.3
2023-02-28T05:28:57.651Z,37.3
2023-02-28T05:29:44.954Z,37.3
2023-02-28T05:30:32.286Z,37.3
2023-02-28T05:31:19.710Z,37.3
2023-02-28T05:32:07.130Z,37.3
2023-02-28T05:32:54.468Z,37.2
2023-02-28T05:33:41.881Z,37.2
2023-02-28T05:34:29.182Z,37.3
2023-02-28T05:35:17.074Z,37.4
2023-02-28T05:36:04.516Z,37.4
2023-02-28T05:36:51.912Z,37.3
2023-02-28T05:37:39.255Z,37.3
2023-02-28T05:38:27.950Z,37.3
2023-02-28T05:39:15.329Z,37.3
2023-02-28T05:40:02.690Z,37.4
2023-02-28T05:40:50.042Z,37.4
2023-02-28T05:41:37.513Z,37.4
2023-02-28T05:42:24.830Z,37.4
2023-02-28T05:43:12.229Z,37.5
2023-02-28T05:43:59.588Z,37.5
2023-02-28T05:44:47.057Z,37.5
2023-02-28T05:45:35.028Z,37.5
2023-02-28T05:46:22.374Z,37.5
2023-02-28T05:47:09.698Z,37.5
2023-02-28T05:47:57.104Z,37.5
2023-02-28T05:48:44.468Z,37.6
2023-02-28T05:49:31.950Z,37.7
2023-02-28T05:50:19.274Z,37.8
2023-02-28T05:51:06.604Z,37.7
2023-02-28T05:51:53.931Z,37.9
2023-02-28T05:52:41.345Z,37.8
2023-02-28T05:53:28.662Z,38.0
2023-02-28T05:54:15.978Z,37.9
2023-02-28T05:55:03.397Z,37.9
2023-02-28T05:55:50.734Z,38.0
2023-02-28T05:56:38.050Z,38.0
2023-02-28T05:57:25.446Z,38.0
2023-02-28T05:58:12.781Z,38.0
2023-02-28T05:59:00.120Z,38.0
2023-02-28T05:59:47.503Z,38.0
2023-02-28T06:00:34.787Z,38.0
2023-02-28T06:01:22.093Z,38.0
2023-02-28T06:02:09.557Z,38.2
2023-02-28T06:02:56.886Z,38.3
2023-02-28T06:03:44.206Z,38.3
2023-02-28T06:04:32.374Z,38.9
2023-02-28T06:05:19.970Z,38.1
2023-02-28T06:06:07.288Z,38.1
2023-02-28T06:06:54.608Z,38.1
2023-02-28T06:07:42.035Z,38.0
2023-02-28T06:08:29.359Z,38.1
2023-02-28T06:09:16.838Z,37.9
2023-02-28T06:10:04.147Z,37.8
2023-02-28T06:10:51.511Z,37.6
2023-02-28T06:11:40.714Z,37.7
2023-02-28T06:12:28.094Z,37.6
2023-02-28T06:13:15.448Z,37.7
2023-02-28T06:14:02.759Z,37.7
2023-02-28T06:14:50.318Z,37.8
2023-02-28T06:15:37.764Z,37.7
2023-02-28T06:16:25.326Z,37.6
2023-02-28T06:17:12.977Z,37.4
2023-02-28T06:18:00.296Z,37.4
2023-02-28T06:18:47.595Z,37.5
2023-02-28T06:19:34.922Z,37.4
2023-02-28T06:20:22.244Z,37.4
2023-02-28T06:21:09.557Z,37.4
2023-02-28T06:21:56.881Z,37.4
2023-02-28T06:22:44.201Z,37.3
2023-02-28T06:23:31.536Z,37.4
2023-02-28T06:24:18.868Z,37.4
2023-02-28T06:25:06.218Z,37.6
2023-02-28T06:25:53.564Z,37.9
2023-02-28T06:26:40.894Z,38.0
2023-02-28T06:27:28.198Z,37.8
2023-02-28T06:28:15.499Z,37.9
2023-02-28T06:29:02.816Z,38.0
2023-02-28T06:29:50.152Z,37.9
2023-02-28T06:30:37.488Z,38.1
2023-02-28T06:31:24.869Z,38.1
2023-02-28T06:32:12.370Z,38.2
2023-02-28T06:32:59.654Z,38.1
2023-02-28T06:33:46.976Z,38.0
2023-02-28T06:34:34.783Z,38.1
2023-02-28T06:35:22.385Z,38.7
2023-02-28T06:36:09.740Z,38.2
2023-02-28T06:36:57.074Z,38.0
2023-02-28T06:37:44.405Z,38.0
2023-02-28T06:38:31.761Z,38.0
2023-02-28T06:39:19.105Z,37.8
2023-02-28T06:40:06.455Z,37.9
2023-02-28T06:40:53.813Z,37.9
2023-02-28T06:41:54.148Z,37.9
2023-02-28T06:42:38.402Z,37.8
2023-02-28T06:43:25.790Z,37.9
2023-02-28T06:44:13.126Z,37.8
2023-02-28T06:45:00.469Z,37.8
2023-02-28T06:45:47.829Z,37.7
2023-02-28T06:46:35.211Z,37.7
2023-02-28T06:47:22.506Z,37.7
2023-02-28T06:48:09.984Z,37.7
2023-02-28T06:48:57.298Z,37.6
2023-02-28T06:49:44.603Z,37.6
2023-02-28T06:50:32.028Z,37.5
2023-02-28T06:51:19.375Z,37.5
2023-02-28T06:52:06.690Z,37.5
2023-02-28T06:52:54.093Z,37.5
2023-02-28T06:53:41.435Z,37.5
2023-02-28T06:54:28.738Z,37.5
2023-02-28T06:55:16.200Z,37.6
2023-02-28T06:56:03.548Z,37.7
2023-02-28T06:56:50.871Z,37.7
2023-02-28T06:57:38.348Z,37.6
2023-02-28T06:58:25.691Z,37.6
2023-02-28T06:59:13.024Z,37.6
2023-02-28T07:00:00.446Z,37.5
2023-02-28T07:00:47.782Z,37.6
2023-02-28T07:01:35.181Z,37.6
2023-02-28T07:02:22.578Z,37.7
2023-02-28T07:03:09.991Z,37.7
2023-02-28T07:03:57.299Z,37.6
2023-02-28T07:04:45.246Z,37.7
2023-02-28T07:05:32.748Z,37.7
2023-02-28T07:06:20.079Z,37.7
2023-02-28T07:07:07.425Z,37.6
2023-02-28T07:07:54.813Z,37.5
2023-02-28T07:08:42.185Z,37.3
2023-02-28T07:09:29.539Z,37.2
2023-02-28T07:10:18.601Z,37.2
2023-02-28T07:11:07.371Z,37.2
2023-02-28T07:11:54.802Z,37.4
2023-02-28T07:12:42.115Z,37.4
2023-02-28T07:13:29.557Z,37.3
2023-02-28T07:14:17.164Z,37.2
2023-02-28T07:15:04.849Z,37.2
2023-02-28T07:15:52.204Z,37.3
2023-02-28T07:16:39.548Z,37.3
2023-02-28T07:17:27.024Z,37.3
2023-02-28T07:18:14.367Z,37.2
2023-02-28T07:19:01.694Z,37.2
2023-02-28T07:19:49.158Z,37.2
2023-02-28T07:20:36.554Z,37.3
2023-02-28T07:21:23.947Z,37.3
2023-02-28T07:22:11.323Z,37.3
2023-02-28T07:22:58.797Z,37.3
2023-02-28T07:23:46.111Z,37.0
2023-02-28T07:24:33.562Z,36.8
2023-02-28T07:25:20.903Z,36.8
2023-02-28T07:26:08.228Z,36.8
2023-02-28T07:26:55.644Z,36.8
2023-02-28T07:27:42.955Z,36.9
2023-02-28T07:28:30.278Z,36.9
2023-02-28T07:29:17.669Z,36.9
2023-02-28T07:30:05.016Z,37.0
2023-02-28T07:30:52.455Z,37.0
2023-02-28T07:31:39.944Z,37.1
2023-02-28T07:32:27.413Z,37.1
2023-02-28T07:33:14.749Z,37.0
2023-02-28T07:34:02.172Z,37.0
2023-02-28T07:34:49.558Z,37.0
2023-02-28T07:35:36.917Z,37.1
2023-02-28T07:36:24.309Z,37.1
2023-02-28T07:37:11.647Z,37.2
2023-02-28T07:38:00.565Z,37.1
2023-02-28T07:38:48.667Z,37.0
2023-02-28T07:39:36.093Z,37.0
2023-02-28T07:40:23.696Z,37.0
2023-02-28T07:41:11.020Z,37.0
2023-02-28T07:41:58.345Z,37.0
2023-02-28T07:42:45.683Z,37.0
2023-02-28T07:43:33.006Z,37.0
2023-02-28T07:44:20.337Z,37.2
2023-02-28T07:45:07.660Z,37.2
2023-02-28T07:45:54.994Z,37.2
2023-02-28T07:46:42.375Z,37.2
2023-02-28T07:47:29.754Z,37.1
2023-02-28T07:48:17.084Z,37.0
2023-02-28T07:49:04.525Z,37.0
2023-02-28T07:49:51.850Z,37.5
2023-02-28T07:50:39.209Z,36.9
2023-02-28T07:51:26.590Z,37.0
2023-02-28T07:52:13.969Z,36.9
2023-02-28T07:53:01.304Z,36.9
2023-02-28T07:53:48.628Z,36.9
2023-02-28T07:54:35.951Z,36.8
2023-02-28T07:55:23.270Z,36.9
2023-02-28T07:56:10.603Z,36.9
2023-02-28T07:56:57.938Z,37.0
2023-02-28T07:57:45.276Z,36.9
2023-02-28T07:58:32.603Z,37.0
2023-02-28T07:59:19.946Z,37.0
2023-02-28T08:00:07.265Z,37.0
2023-02-28T08:00:54.737Z,37.3
2023-02-28T08:01:42.133Z,37.2
2023-02-28T08:02:29.462Z,37.1
2023-02-28T08:03:16.780Z,37.2
2023-02-28T08:04:04.098Z,37.1
2023-02-28T08:04:51.442Z,37.1
2023-02-28T08:05:38.820Z,37.1
2023-02-28T08:06:26.169Z,37.1
2023-02-28T08:07:13.494Z,37.2
2023-02-28T08:08:00.820Z,37.0
2023-02-28T08:08:48.162Z,37.0
2023-02-28T08:09:35.483Z,37.0
2023-02-28T08:10:22.794Z,36.9
2023-02-28T08:11:10.104Z,37.0
2023-02-28T08:11:57.436Z,37.0
2023-02-28T08:12:44.765Z,37.0
2023-02-28T08:13:32.139Z,37.0
2023-02-28T08:14:19.479Z,37.1
2023-02-28T08:15:06.829Z,37.2
2023-02-28T08:15:54.246Z,37.2
2023-02-28T08:16:41.699Z,37.1
2023-02-28T08:17:29.030Z,37.0
2023-02-28T08:18:16.372Z,37.0
2023-02-28T08:19:03.689Z,37.1
2023-02-28T08:19:51.003Z,37.2
2023-02-28T08:20:38.384Z,37.2
2023-02-28T08:21:25.716Z,37.1
2023-02-28T08:22:13.054Z,37.0
2023-02-28T08:23:00.388Z,37.0
2023-02-28T08:23:47.706Z,37.1
2023-02-28T08:24:35.252Z,37.1
2023-02-28T08:25:22.576Z,37.1
2023-02-28T08:26:09.911Z,37.0
2023-02-28T08:26:57.237Z,37.1
2023-02-28T08:27:44.595Z,37.1
2023-02-28T08:28:31.930Z,37.0
2023-02-28T08:29:19.245Z,37.1
2023-02-28T08:30:06.811Z,37.0
2023-02-28T08:30:54.174Z,37.0
2023-02-28T08:31:41.527Z,37.1
2023-02-28T08:32:30.366Z,37.0
2023-02-28T08:33:18.006Z,37.1
2023-02-28T08:34:05.412Z,37.0
2023-02-28T08:34:52.739Z,37.0
2023-02-28T08:35:40.143Z,37.0
2023-02-28T08:36:27.559Z,37.0
2023-02-28T08:37:14.940Z,37.0
2023-02-28T08:38:02.275Z,36.9
2023-02-28T08:38:49.700Z,36.9
2023-02-28T08:39:37.216Z,36.8
2023-02-28T08:40:24.581Z,36.9
2023-02-28T08:41:12.012Z,36.8
2023-02-28T08:42:07.238Z,36.9
2023-02-28T08:42:55.230Z,36.8
2023-02-28T08:43:42.632Z,36.8
2023-02-28T08:44:29.937Z,36.8
2023-02-28T08:45:17.254Z,36.9
2023-02-28T08:46:04.907Z,36.8
2023-02-28T08:46:52.391Z,36.9
2023-02-28T08:47:39.718Z,36.8
2023-02-28T08:48:27.056Z,36.9
2023-02-28T08:49:14.371Z,36.8
2023-02-28T08:50:02.095Z,36.8
2023-02-28T08:50:59.324Z,36.9
2023-02-28T08:51:46.792Z,36.9
2023-02-28T08:52:34.207Z,36.9
2023-02-28T08:53:21.539Z,36.9
2023-02-28T08:54:08.903Z,36.9
2023-02-28T08:54:56.329Z,36.9
2023-02-28T08:55:43.685Z,36.9
2023-02-28T08:56:31.016Z,36.8
2023-02-28T08:57:18.429Z,36.7
2023-02-28T08:58:05.769Z,36.7
2023-02-28T08:58:53.124Z,36.7
2023-02-28T08:59:40.516Z,36.7
2023-02-28T09:00:27.837Z,36.7
2023-02-28T09:01:15.282Z,36.7
2023-02-28T09:02:02.682Z,36.7
2023-02-28T09:02:50.021Z,36.7
2023-02-28T09:03:37.396Z,36.8
2023-02-28T09:04:25.408Z,36.8
2023-02-28T09:05:12.862Z,36.8
2023-02-28T09:06:00.174Z,36.7
2023-02-28T09:06:47.474Z,36.7
2023-02-28T09:07:34.911Z,36.6
2023-02-28T09:08:22.261Z,36.5
2023-02-28T09:09:09.619Z,36.6
2023-02-28T09:09:57.031Z,36.6
2023-02-28T09:10:44.347Z,36.7
2023-02-28T09:11:31.847Z,36.9
2023-02-28T09:12:19.196Z,36.8
2023-02-28T09:13:06.517Z,36.9
2023-02-28T09:13:53.876Z,37.0
2023-02-28T09:14:41.245Z,36.9
2023-02-28T09:15:28.602Z,36.9
2023-02-28T09:16:15.995Z,36.8
2023-02-28T09:17:55.615Z,36.8
2023-02-28T09:18:42.949Z,36.8
2023-02-28T09:19:30.312Z,36.8
2023-02-28T09:20:17.639Z,37.4
2023-02-28T09:21:05.035Z,37.7
2023-02-28T09:21:52.415Z,38.4
2023-02-28T09:22:39.736Z,38.7
2023-02-28T09:23:27.141Z,38.7
2023-02-28T09:24:22.096Z,38.9
2023-02-28T09:25:09.417Z,38.7
2023-02-28T09:25:56.862Z,38.9
2023-02-28T09:26:56.368Z,39.0
2023-02-28T09:27:42.430Z,39.0
2023-02-28T09:28:30.543Z,38.7
2023-02-28T09:29:17.933Z,38.7
2023-02-28T09:30:05.392Z,38.6
2023-02-28T09:30:52.786Z,38.5
2023-02-28T09:31:40.201Z,38.4
2023-02-28T09:32:27.570Z,38.2
2023-02-28T09:33:14.954Z,38.2
2023-02-28T09:34:02.460Z,38.1
2023-02-28T09:34:49.799Z,38.3
2023-02-28T09:35:37.115Z,38.3
2023-02-28T09:36:26.882Z,38.2
2023-02-28T09:37:21.739Z,38.0
2023-02-28T09:38:09.113Z,37.9
2023-02-28T09:38:56.470Z,37.9
2023-02-28T09:39:43.829Z,37.8
2023-02-28T09:40:31.209Z,37.9
2023-02-28T09:41:18.538Z,37.9
2023-02-28T09:42:05.890Z,37.8
2023-02-28T09:42:53.443Z,37.7
2023-02-28T09:43:40.764Z,37.8
2023-02-28T09:44:28.121Z,37.6
2023-02-28T09:45:15.480Z,37.6
2023-02-28T09:46:02.879Z,37.6
2023-02-28T09:46:50.318Z,37.5
2023-02-28T09:47:37.697Z,37.6
2023-02-28T09:48:25.008Z,37.5
2023-02-28T09:49:12.361Z,37.4
2023-02-28T09:49:59.897Z,37.3
2023-02-28T09:50:47.228Z,37.3
2023-02-28T09:51:34.572Z,37.3
2023-02-28T09:52:21.970Z,37.2
2023-02-28T09:53:09.306Z,37.1
2023-02-28T09:54:01.326Z,37.1
2023-02-28T09:54:49.124Z,37.2
2023-02-28T09:55:46.312Z,37.2
2023-02-28T09:56:34.252Z,37.1
2023-02-28T09:57:21.619Z,37.1
2023-02-28T09:58:08.983Z,37.1
2023-02-28T09:58:56.326Z,37.2
2023-02-28T09:59:43.633Z,37.2
2023-02-28T10:00:31.147Z,37.2
2023-02-28T10:01:18.543Z,37.2
2023-02-28T10:02:06.250Z,37.3
2023-02-28T10:02:53.796Z,37.3
2023-02-28T10:03:41.115Z,37.2
2023-02-28T10:04:28.545Z,37.2
2023-02-28T10:05:15.895Z,37.3
2023-02-28T10:06:03.246Z,37.3
2023-02-28T10:06:50.545Z,37.2
2023-02-28T10:07:37.941Z,37.1
2023-02-28T10:08:25.322Z,37.3
2023-02-28T10:09:12.681Z,37.2
2023-02-28T10:10:00.054Z,37.3
2023-02-28T10:10:47.378Z,37.3
2023-02-28T10:11:34.742Z,37.3
2023-02-28T10:12:22.223Z,37.4
2023-02-28T10:13:09.553Z,37.4
2023-02-28T10:13:56.948Z,37.5
2023-02-28T10:14:44.292Z,37.5
2023-02-28T10:15:31.693Z,37.5
2023-02-28T10:16:19.241Z,37.5
2023-02-28T10:17:06.642Z,38.0
2023-02-28T10:18:08.130Z,37.4
2023-02-28T10:18:51.638Z,37.4
2023-02-28T10:19:39.079Z,37.4
2023-02-28T10:20:26.447Z,37.4
2023-02-28T10:21:13.788Z,37.4
2023-02-28T10:22:01.253Z,37.4
2023-02-28T10:22:48.707Z,37.4
2023-02-28T10:23:36.078Z,37.4
2023-02-28T10:24:23.489Z,37.4
2023-02-28T10:25:10.856Z,37.5
2023-02-28T10:25:58.213Z,37.5
2023-02-28T10:26:45.845Z,37.4
2023-02-28T10:27:33.163Z,37.4
2023-02-28T10:28:20.519Z,37.4
2023-02-28T10:29:07.931Z,37.3
2023-02-28T10:29:55.279Z,37.4
2023-02-28T10:30:42.710Z,37.4
2023-02-28T10:31:30.090Z,37.3
2023-02-28T10:32:17.538Z,37.3
2023-02-28T10:33:04.968Z,37.3
2023-02-28T10:33:52.320Z,37.3
2023-02-28T10:34:39.655Z,37.2
2023-02-28T10:35:27.024Z,37.3
2023-02-28T10:36:14.447Z,37.2
2023-02-28T10:37:02.014Z,37.1
2023-02-28T10:37:49.363Z,37.0
2023-02-28T10:38:36.802Z,37.1
2023-02-28T10:39:24.152Z,37.2
2023-02-28T10:40:11.526Z,37.1
2023-02-28T10:40:58.873Z,37.0
2023-02-28T10:41:46.208Z,37.1
2023-02-28T10:42:33.563Z,37.0
2023-02-28T10:43:20.964Z,37.1
2023-02-28T10:44:08.637Z,37.1
2023-02-28T10:44:56.066Z,37.1
2023-02-28T10:45:43.369Z,37.1
2023-02-28T10:46:31.031Z,37.0
2023-02-28T10:47:18.564Z,36.9
2023-02-28T10:48:05.932Z,36.8
2023-02-28T10:48:53.270Z,36.9
2023-02-28T10:49:40.618Z,36.9
2023-02-28T10:50:27.995Z,36.5
2023-02-28T10:51:15.360Z,36.4
2023-02-28T10:52:02.711Z,36.6
2023-02-28T10:52:50.074Z,36.8
2023-02-28T10:53:52.670Z,37.4
2023-02-28T10:54:34.724Z,37.2
2023-02-28T10:55:22.098Z,37.0
2023-02-28T10:56:09.432Z,37.1
2023-02-28T10:56:56.744Z,37.0
2023-02-28T10:57:44.217Z,37.1
2023-02-28T10:58:31.568Z,37.0
2023-02-28T10:59:18.911Z,37.0
2023-02-28T11:00:06.379Z,37.0
2023-02-28T11:00:53.690Z,37.0
2023-02-28T11:01:41.058Z,37.1
2023-02-28T11:02:28.461Z,37.2
2023-02-28T11:03:15.824Z,37.3
2023-02-28T11:04:03.144Z,37.3
2023-02-28T11:04:50.778Z,37.3
2023-02-28T11:05:38.273Z,37.3
2023-02-28T11:06:25.607Z,37.4
2023-02-28T11:07:12.935Z,37.5
2023-02-28T11:08:00.301Z,37.4
2023-02-28T11:08:47.638Z,37.4
2023-02-28T11:09:34.987Z,37.4
2023-02-28T11:10:22.510Z,37.3
2023-02-28T11:11:10.357Z,37.3
2023-02-28T11:11:57.700Z,37.2
2023-02-28T11:12:52.259Z,37.2
2023-02-28T11:13:40.552Z,37.2
2023-02-28T11:14:27.949Z,37.2
2023-02-28T11:15:15.274Z,37.2
2023-02-28T11:16:02.622Z,37.2
2023-02-28T11:16:50.062Z,37.2
2023-02-28T11:17:37.600Z,37.2
2023-02-28T11:18:24.975Z,37.2
2023-02-28T11:19:12.387Z,37.4
2023-02-28T11:19:59.766Z,37.4
2023-02-28T11:20:47.151Z,37.5
2023-02-28T11:21:34.792Z,37.3
2023-02-28T11:22:22.237Z,37.3
2023-02-28T11:23:09.630Z,37.2
2023-02-28T11:23:56.954Z,37.2
2023-02-28T11:24:44.812Z,37.2
2023-02-28T11:25:32.269Z,37.2
2023-02-28T11:26:19.615Z,37.1
2023-02-28T11:27:06.921Z,37.2
2023-02-28T11:27:54.249Z,37.2
2023-02-28T11:28:41.803Z,37.2
2023-02-28T11:29:29.165Z,37.2
2023-02-28T11:30:16.540Z,37.2
2023-02-28T11:31:04.000Z,37.2
2023-02-28T11:31:51.377Z,37.2
2023-02-28T11:32:39.081Z,37.2
2023-02-28T11:33:26.827Z,37.1
2023-02-28T11:34:14.144Z,37.2
2023-02-28T11:35:01.505Z,37.1
2023-02-28T11:35:48.862Z,37.1
2023-02-28T11:36:36.192Z,37.2
2023-02-28T11:37:23.530Z,37.2
2023-02-28T11:38:10.854Z,37.3
2023-02-28T11:38:58.173Z,37.4
2023-02-28T11:39:49.415Z,37.4
2023-02-28T11:40:37.063Z,37.3
2023-02-28T11:41:24.445Z,37.4
2023-02-28T11:42:11.804Z,37.3
2023-02-28T11:42:59.154Z,37.3
2023-02-28T11:43:46.513Z,37.3
2023-02-28T11:44:33.922Z,37.3
2023-02-28T11:45:21.273Z,37.3
2023-02-28T11:46:08.727Z,37.3
2023-02-28T11:46:56.108Z,37.3
2023-02-28T11:47:43.496Z,37.3
2023-02-28T11:48:30.873Z,37.4
2023-02-28T11:49:18.222Z,37.4
2023-02-28T11:50:05.559Z,37.5
2023-02-28T11:50:53.018Z,37.5
2023-02-28T11:51:40.377Z,37.5
2023-02-28T11:52:27.724Z,37.5
2023-02-28T11:53:15.148Z,37.6
2023-02-28T11:54:02.504Z,37.6
2023-02-28T11:54:49.826Z,37.6
2023-02-28T11:55:37.532Z,37.5
2023-02-28T11:56:24.946Z,37.5
2023-02-28T11:57:12.329Z,37.5
2023-02-28T11:57:59.678Z,37.6
2023-02-28T11:58:48.354Z,37.6
2023-02-28T11:59:35.812Z,37.6
2023-02-28T12:00:23.139Z,37.5
2023-02-28T12:01:10.472Z,37.5
2023-02-28T12:01:57.804Z,37.5
2023-02-28T12:02:45.281Z,37.4
2023-02-28T12:03:32.864Z,37.5
2023-02-28T12:04:20.183Z,37.4
2023-02-28T12:05:07.993Z,37.4
2023-02-28T12:05:56.170Z,37.4
2023-02-28T12:06:43.570Z,37.4
2023-02-28T12:07:30.896Z,37.5
2023-02-28T12:08:18.217Z,37.4
2023-02-28T12:09:05.873Z,37.4
2023-02-28T12:09:53.434Z,37.4
2023-02-28T12:10:40.761Z,37.5
2023-02-28T12:11:28.760Z,37.5
2023-02-28T12:12:16.286Z,37.5
2023-02-28T12:13:03.614Z,37.5
2023-02-28T12:13:50.935Z,37.5
2023-02-28T12:14:38.366Z,37.5
2023-02-28T12:15:25.698Z,37.5
2023-02-28T12:16:13.113Z,37.5
2023-02-28T12:17:00.504Z,37.5
2023-02-28T12:17:47.884Z,37.4
2023-02-28T12:18:35.205Z,37.4
2023-02-28T12:19:22.624Z,37.5
2023-02-28T12:20:10.037Z,37.4
2023-02-28T12:20:57.442Z,37.3
2023-02-28T12:21:44.808Z,37.4
2023-02-28T12:22:32.134Z,37.4
2023-02-28T12:23:19.495Z,37.4
2023-02-28T12:24:06.902Z,37.3
2023-02-28T12:24:54.309Z,38.0
2023-02-28T12:25:41.668Z,37.5
2023-02-28T12:26:29.098Z,37.4
2023-02-28T12:27:16.491Z,37.5
2023-02-28T12:28:03.916Z,37.5
2023-02-28T12:28:51.301Z,37.5
2023-02-28T12:29:38.658Z,37.5
2023-02-28T12:30:26.005Z,37.5
2023-02-28T12:31:13.389Z,37.5
2023-02-28T12:32:00.778Z,37.5
2023-02-28T12:32:48.690Z,37.6
2023-02-28T12:33:36.039Z,37.7
2023-02-28T12:34:23.572Z,38.3
2023-02-28T12:35:10.944Z,38.4
2023-02-28T12:35:58.371Z,37.8
2023-02-28T12:36:45.790Z,37.7
2023-02-28T12:37:33.222Z,37.7
2023-02-28T12:38:20.604Z,37.6
2023-02-28T12:39:07.967Z,37.6
2023-02-28T12:39:55.315Z,37.5
2023-02-28T12:40:42.647Z,37.5
2023-02-28T12:41:30.334Z,37.5
2023-02-28T12:42:18.022Z,37.5
2023-02-28T12:43:05.370Z,37.5
2023-02-28T12:43:52.730Z,37.6
2023-02-28T12:44:40.106Z,37.4
2023-02-28T12:45:27.492Z,37.5
2023-02-28T12:46:14.956Z,37.5
2023-02-28T12:47:02.367Z,37.5
2023-02-28T12:47:49.740Z,37.5
2023-02-28T12:48:37.100Z,37.6
2023-02-28T12:49:24.470Z,37.6
2023-02-28T12:50:11.835Z,37.6
2023-02-28T12:50:59.253Z,37.6
2023-02-28T12:51:46.677Z,37.6
2023-02-28T12:52:34.189Z,37.6
2023-02-28T12:53:21.549Z,37.6
2023-02-28T12:54:08.899Z,37.6
2023-02-28T12:54:56.290Z,37.7
2023-02-28T12:55:43.778Z,37.9
2023-02-28T12:56:31.133Z,37.8
2023-02-28T12:57:18.632Z,37.9
2023-02-28T12:58:05.957Z,37.8
2023-02-28T12:58:53.355Z,37.8
2023-02-28T12:59:40.676Z,37.8
2023-02-28T13:00:28.102Z,37.8
2023-02-28T13:01:15.483Z,37.8
2023-02-28T13:02:02.957Z,37.8
2023-02-28T13:02:50.381Z,37.9
2023-02-28T13:03:37.705Z,37.9
2023-02-28T13:04:25.085Z,38.0
2023-02-28T13:05:12.627Z,37.8
2023-02-28T13:06:00.132Z,37.8
2023-02-28T13:06:47.549Z,37.9
2023-02-28T13:07:34.893Z,37.9
2023-02-28T13:08:22.212Z,37.9
2023-02-28T13:09:09.542Z,38.0
2023-02-28T13:09:56.920Z,37.9
2023-02-28T13:10:44.388Z,38.0
2023-02-28T13:11:31.874Z,38.0
2023-02-28T13:12:19.214Z,37.9
2023-02-28T13:13:06.557Z,37.8
2023-02-28T13:13:54.076Z,37.8
2023-02-28T13:14:41.400Z,38.3
2023-02-28T13:15:28.792Z,37.8
2023-02-28T13:16:16.163Z,37.8
2023-02-28T13:17:03.612Z,37.8
2023-02-28T13:17:51.056Z,37.8
2023-02-28T13:18:38.442Z,37.7
2023-02-28T13:19:25.799Z,37.6
2023-02-28T13:20:13.201Z,37.6
2023-02-28T13:21:00.551Z,37.7
2023-02-28T13:21:49.867Z,37.4
2023-02-28T13:22:37.340Z,37.1
2023-02-28T13:23:24.745Z,36.9
2023-02-28T13:24:12.536Z,37.1
2023-02-28T13:24:59.863Z,37.2
2023-02-28T13:25:47.286Z,37.3
2023-02-28T13:26:34.630Z,37.4
2023-02-28T13:27:21.945Z,37.4
2023-02-28T13:28:09.390Z,37.4
2023-02-28T13:28:56.746Z,37.5
2023-02-28T13:29:44.067Z,37.6
2023-02-28T13:30:31.540Z,37.6
2023-02-28T13:31:19.311Z,37.6
2023-02-28T13:32:06.680Z,37.5
2023-02-28T13:32:54.074Z,37.6
2023-02-28T13:33:41.386Z,37.7
2023-02-28T13:34:29.280Z,37.6
2023-02-28T13:35:16.649Z,37.6
2023-02-28T13:36:04.171Z,37.8
2023-02-28T13:36:51.513Z,37.8
2023-02-28T13:37:38.849Z,37.8
2023-02-28T13:38:26.274Z,37.8
2023-02-28T13:39:13.585Z,37.9
2023-02-28T13:40:00.929Z,37.9
2023-02-28T13:40:48.321Z,38.0
2023-02-28T13:41:35.750Z,38.0
2023-02-28T13:42:23.145Z,38.1
2023-02-28T13:43:10.509Z,38.1
2023-02-28T13:43:57.840Z,38.1
2023-02-28T13:44:45.167Z,38.0
2023-02-28T13:45:32.591Z,38.0
2023-02-28T13:46:19.934Z,38.1
2023-02-28T13:47:07.272Z,38.1
2023-02-28T13:47:54.695Z,38.0
2023-02-28T13:48:42.269Z,38.0
2023-02-28T13:49:29.623Z,37.9
2023-02-28T13:50:17.938Z,38.0
2023-02-28T13:51:05.329Z,38.1
2023-02-28T13:51:52.679Z,38.1
2023-02-28T13:52:40.431Z,38.1
2023-02-28T13:53:27.797Z,38.1
2023-02-28T13:54:15.139Z,38.3
2023-02-28T13:55:02.460Z,38.3
2023-02-28T13:55:49.767Z,38.3
2023-02-28T13:56:37.122Z,38.3
2023-02-28T13:57:24.455Z,38.3
2023-02-28T13:58:11.774Z,38.2
2023-02-28T13:58:59.086Z,38.1
2023-02-28T13:59:46.394Z,38.1
2023-02-28T14:00:33.763Z,38.0
2023-02-28T14:01:21.109Z,38.0
2023-02-28T14:02:08.489Z,38.0
2023-02-28T14:02:55.839Z,38.1
2023-02-28T14:03:43.273Z,38.0
2023-02-28T14:04:32.461Z,38.5
2023-02-28T14:05:20.850Z,38.0
2023-02-28T14:06:08.221Z,38.0
2023-02-28T14:06:55.530Z,37.9
2023-02-28T14:07:43.057Z,37.9
2023-02-28T14:08:30.376Z,38.0
2023-02-28T14:09:17.705Z,37.9
2023-02-28T14:10:05.121Z,37.8
2023-02-28T14:10:52.632Z,37.8
2023-02-28T14:11:39.972Z,37.8
2023-02-28T14:12:27.334Z,37.9
2023-02-28T14:13:14.760Z,38.0
2023-02-28T14:14:02.104Z,38.1
2023-02-28T14:14:50.056Z,38.1
2023-02-28T14:15:37.520Z,38.0
2023-02-28T14:16:25.127Z,38.0
2023-02-28T14:17:12.609Z,38.1
2023-02-28T14:17:59.976Z,38.1
2023-02-28T14:18:47.567Z,38.1
2023-02-28T14:19:34.890Z,38.2
2023-02-28T14:20:22.331Z,38.2
2023-02-28T14:21:09.640Z,38.3
2023-02-28T14:21:56.986Z,38.3
2023-02-28T14:22:44.313Z,38.2
2023-02-28T14:23:31.714Z,38.1
2023-02-28T14:24:19.048Z,38.1
2023-02-28T14:25:06.381Z,38.0
2023-02-28T14:25:53.965Z,38.0
2023-02-28T14:26:41.516Z,38.0
2023-02-28T14:27:29.028Z,38.0
2023-02-28T14:28:16.358Z,38.0
2023-02-28T14:29:03.834Z,38.0
2023-02-28T14:29:51.169Z,38.1
2023-02-28T14:30:38.605Z,38.2
2023-02-28T14:31:25.993Z,38.2
2023-02-28T14:32:13.402Z,38.2
2023-02-28T14:33:00.739Z,38.2
2023-02-28T14:33:48.286Z,38.1
2023-02-28T14:34:35.614Z,38.1
2023-02-28T14:35:23.073Z,38.1
2023-02-28T14:36:10.420Z,38.0
2023-02-28T14:36:57.792Z,37.9
2023-02-28T14:37:45.168Z,37.8
2023-02-28T14:38:32.564Z,37.9
2023-02-28T14:39:19.894Z,37.9
2023-02-28T14:40:07.446Z,38.4
2023-02-28T14:40:54.864Z,37.8
2023-02-28T14:41:42.372Z,37.8
2023-02-28T14:42:29.694Z,37.9
2023-02-28T14:43:17.032Z,37.9
2023-02-28T14:44:04.375Z,37.9
2023-02-28T14:44:51.792Z,37.8
2023-02-28T14:45:39.147Z,37.8
2023-02-28T14:46:26.507Z,37.7
2023-02-28T14:47:13.908Z,37.7
2023-02-28T14:48:01.244Z,37.6
2023-02-28T14:48:48.603Z,37.5
2023-02-28T14:49:35.992Z,37.5
2023-02-28T14:50:23.302Z,37.5
2023-02-28T14:51:10.629Z,37.5
2023-02-28T14:51:58.557Z,37.6
2023-02-28T14:52:48.093Z,37.6
2023-02-28T14:53:35.978Z,37.6
2023-02-28T14:54:23.527Z,37.6
2023-02-28T14:55:10.967Z,37.7
2023-02-28T14:55:58.297Z,37.6
2023-02-28T14:56:45.637Z,37.5
2023-02-28T14:57:33.320Z,37.6
2023-02-28T14:58:20.741Z,37.6
2023-02-28T14:59:08.220Z,37.7
2023-02-28T14:59:55.566Z,37.8
2023-02-28T15:00:42.869Z,37.8
2023-02-28T15:01:30.270Z,37.7
2023-02-28T15:02:17.642Z,37.7
2023-02-28T15:03:04.967Z,37.6
2023-02-28T15:03:52.299Z,37.6
2023-02-28T15:04:39.631Z,37.6
2023-02-28T15:05:26.983Z,37.6
2023-02-28T15:06:14.307Z,37.6
2023-02-28T15:07:01.620Z,37.6
2023-02-28T15:07:48.934Z,37.5
2023-02-28T15:08:36.241Z,37.6
2023-02-28T15:09:23.572Z,37.6
2023-02-28T15:10:10.878Z,37.6
2023-02-28T15:10:58.229Z,37.6
2023-02-28T15:11:45.545Z,37.6
2023-02-28T15:12:32.880Z,37.5